Estaciones Metar próximas

 

LELL - Sabadell, Spain
Distancia a la estación: E 18km
Actualizado: 02/03/2024 07:00
Despejado
Despejado
 Viento del calm
Viento: Calma
Temperatura: 6°C
Rocío: 2°C
Humedad: 76%
Barómetro: 1007 hPa
Resumen: Despejado
Visibilidad: greater than 10 km
2024/03/02 06:00 LELL 020600Z AUTO 00000KT CAVOK 06/02 Q1007
LEBL - Barcelona Airpor, Spain
Distancia a la estación: SSE 33km
Actualizado: 02/03/2024 07:00
Despejado
Despejado
 Viento del NNO
Viento: NNO 7 km/h
Temperatura: 8°C
Sensación Térmica: 7°C
Rocío: 2°C
Humedad: 66%
Barómetro: 1007 hPa
Resumen: Despejado
Visibilidad: greater than 10 km
2024/03/02 06:00 LEBL 020600Z 34004KT CAVOK 08/02 Q1007 NOSIG
LERS - Reus (civ/Mil), Spain
Distancia a la estación: SO 75km
Actualizado: 02/03/2024 07:00
Despejado
Despejado
 Viento del varies
Viento: varies 6 km/h
Temperatura: 6°C
Rocío: 1°C
Humedad: 71%
Barómetro: 1008 hPa
Resumen: Despejado
Visibilidad: greater than 10 km
2024/03/02 06:00 LERS 020600Z VRB03KT CAVOK 06/01 Q1008
 
LEGE - Gerona/Costa Bra, Spain
Distancia a la estación: ENE 83km
Actualizado: 02/03/2024 07:00
Despejado
Despejado
 Viento del calm
Viento: Calma
Temperatura: 6°C
Rocío: 2°C
Humedad: 76%
Barómetro: 1006 hPa
Resumen: Despejado
Visibilidad: greater than 10 km
2024/03/02 06:00 LEGE 020600Z 00000KT CAVOK 06/02 Q1006
LFMP - Perpignan/Rivesa, France
Distancia a la estación: NNE 155km
Actualizado: 02/03/2024 07:00
Despejado
Despejado
 Viento del O
Viento: O 7 km/h
Temperatura: 5°C
Sensación Térmica: 3°C
Rocío: 3°C
Humedad: 87%
Barómetro: 1004 hPa
Resumen: Despejado
Visibilidad: greater than 10 km
2024/03/02 06:00 LFMP 020600Z AUTO 27004KT 230V290 CAVOK 05/03 Q1004 NOSIG
LFMK - Carcassonne/Salv, France
Distancia a la estación: N 191km
Actualizado: 02/03/2024 07:00
Despejado
Despejado
 Viento del varies
Viento: varies 4 km/h
Temperatura: 4°C
Rocío: 3°C
Humedad: 93%
Barómetro: 1004 hPa
Resumen: Despejado
Visibilidad: greater than 10 km
2024/03/02 06:00 LFMK 020600Z AUTO VRB02KT CAVOK 04/03 Q1004 TEMPO BKN012
 
LEHC - Huesca-Pirineos, Spain
Distancia a la estación: ONO 193km
Actualizado: 02/03/2024 07:00
Lluvia débil, Muy nuboso
Lluvia débil, Muy nuboso
 Viento del varies
Viento: varies 2 km/h
Temperatura: 5°C
Rocío: 4°C
Humedad: 93%
Barómetro: 1007 hPa
Resumen: Lluvia débil
Nubes: Muy nuboso
Visibilidad: 10 km
Detalle Nubes: Nubes dispersas 1311 m
Muy nuboso 2134 m
2024/03/02 06:00 LEHC 020600Z AUTO VRB01KT 9999 -RA FEW043 BKN070 05/04 Q1007
LFMU - Beziers/Vias, France
Distancia a la estación: NNE 232km
Actualizado: 02/03/2024 07:00
Cubierto
Cubierto
 Viento del NNE
Viento: NNE 11 km/h
Temperatura: 8°C
Sensación Térmica: 6°C
Rocío: 7°C
Humedad: 93%
Barómetro: 1005 hPa
Nubes: Cubierto
Visibilidad: 10 km
Detalle Nubes: Muy nuboso 366 m
Cubierto 4267 m
2024/03/02 06:00 LFMU 020600Z AUTO 03006KT 9999 BKN012 OVC140 08/07 Q1005 NOSIG
LEPA - Palma De Mallorc, Spain
Distancia a la estación: SSE 233km
Actualizado: 02/03/2024 07:00
Despejado
Despejado
 Viento del OSO
Viento: OSO 13 km/h
Temperatura: 5°C
Sensación Térmica: 2°C
Rocío: 5°C
Humedad: 100%
Barómetro: 1010 hPa
Resumen: Despejado
Visibilidad: greater than 10 km
2024/03/02 06:00 LEPA 020600Z 24007KT 200V300 CAVOK 05/05 Q1010 NOSIG
 
LFBO - Toulouse/Blagnac, France
Distancia a la estación: N 236km
Actualizado: 02/03/2024 07:00
Cubierto
Cubierto
 Viento del S
Viento: S 4 km/h
Temperatura: 6°C
Rocío: 5°C
Humedad: 93%
Barómetro: 1004 hPa
Nubes: Cubierto
Visibilidad: 10 km
Detalle Nubes: Nubes dispersas 1158 m
Cubierto 2926 m
2024/03/02 06:00 LFBO 020600Z AUTO 17002KT 9999 FEW038 OVC096 06/05 Q1004 TEMPO BKN013 BECMG 14012KT
LFBT - Tarbes/Ossun, France
Distancia a la estación: NO 239km
Actualizado: 02/03/2024 07:00
Cubierto
Cubierto
 Viento del ESE
Viento: ESE 11 km/h
Temperatura: 7°C
Sensación Térmica: 5°C
Rocío: 6°C
Humedad: 93%
Barómetro: 1002 hPa
Nubes: Cubierto
Visibilidad: 10 km
Detalle Nubes: Cubierto 3048 m
2024/03/02 06:00 LFBT 020600Z AUTO 12006KT 9999 OVC100 07/06 Q1002 NOSIG
LEZG - Zaragoza (mil/Ci, Spain
Distancia a la estación: O 242km
Actualizado: 02/03/2024 07:00
Nubes dispersas
Nubes dispersas
 Viento del SE
Viento: SE 11 km/h
Temperatura: 11°C
Rocío: 4°C
Humedad: 62%
Barómetro: 1006 hPa
Nubes: Nubes dispersas
Visibilidad: 10 km
Detalle Nubes: Nubes dispersas 2134 m
2024/03/02 06:00 LEZG 020600Z 14006KT 040V170 9999 FEW070 11/04 Q1006